Monday, August 20, 2018, 8:42 AM EDT
Back to Local

KMSS, Massena International -richards Fld

Location: Massena, NY, United States Lat: 44.933
Local Time: 8:42 AM EDT (12:42 GMT) Lon: -74.85
Time Zone: US/Eastern Elev: 213 ft

Show me the last for .
Show Decoded

2018-08-20 07:53 METAR KMSS 201153Z AUTO 00000KT 10SM OVC070 18/16 A3017 RMK AO2 SLP215 T01830156
                 10183 20144 53013 =
2018-08-20 06:53 METAR KMSS 201053Z AUTO 00000KT 10SM BKN070 15/15 A3016 RMK AO2 SLP212 T01500150
                 =
2018-08-20 05:53 METAR KMSS 200953Z AUTO 00000KT 10SM OVC070 15/14 A3014 RMK AO2 SLP206 T01500144
                 =
2018-08-20 04:53 METAR KMSS 200853Z AUTO 00000KT 10SM BKN075 15/14 A3013 RMK AO2 SLP203 T01500144
                 51007 =
2018-08-20 03:53 METAR KMSS 200753Z AUTO 00000KT 10SM BKN075 15/14 A3013 RMK AO2 SLP202 T01500144
                 =
2018-08-20 02:53 METAR KMSS 200653Z AUTO 00000KT 10SM BKN070 14/14 A3011 RMK AO2 SLP196 T01440139
                 =
2018-08-20 01:53 METAR KMSS 200553Z AUTO 00000KT 10SM SCT070 14/14 A3011 RMK AO2 SLP195 T01440139
                 10228 20144 51008 =
2018-08-20 00:53 METAR KMSS 200453Z AUTO 00000KT 10SM SCT070 16/14 A3011 RMK AO2 SLP195 T01560144
                 402830111 =
2018-08-19 23:53 METAR KMSS 200353Z AUTO 00000KT 10SM CLR 16/14 A3010 RMK AO2 SLP191 T01560144 =
2018-08-19 22:53 METAR KMSS 200253Z AUTO 12003KT 10SM CLR 18/16 A3009 RMK AO2 SLP187 T01830156
                 51009 =
2018-08-19 21:53 METAR KMSS 200153Z AUTO 08003KT 10SM CLR 19/16 A3008 RMK AO2 SLP185 T01940156 =
2018-08-19 20:53 METAR KMSS 200053Z AUTO 00000KT 10SM CLR 18/16 A3008 RMK AO2 SLP186 T01830161 =
2018-08-19 19:53 METAR KMSS 192353Z AUTO 04003KT 10SM CLR 23/16 A3006 RMK AO2 SLP179 T02280156
                 10283 20228 53005 =
2018-08-19 18:53 METAR KMSS 192253Z AUTO 05006KT 10SM CLR 25/14 A3006 RMK AO2 SLP177 T02500144 =
2018-08-19 17:53 METAR KMSS 192153Z AUTO 06009KT 10SM CLR 27/14 A3005 RMK AO2 SLP174 T02670144 =
2018-08-19 16:53 METAR KMSS 192053Z AUTO 06010KT 10SM CLR 27/14 A3005 RMK AO2 SLP174 T02720144
                 55002 =
2018-08-19 15:53 METAR KMSS 191953Z AUTO 06007KT 10SM CLR 28/15 A3004 RMK AO2 SLP171 T02780150 =
2018-08-19 14:53 METAR KMSS 191853Z AUTO 04009KT 10SM FEW060 28/16 A3004 RMK AO2 SLP170 T02780156
                 =
2018-08-19 13:53 METAR KMSS 191753Z AUTO 07009G14KT 10SM FEW048 27/17 A3005 RMK AO2 SLP175
                 T02670167 10278 20167 56008 =
2018-08-19 12:53 METAR KMSS 191653Z AUTO VRB06KT 10SM FEW042 SCT060 27/18 A3006 RMK AO2 SLP178
                 T02670178 =
2018-08-19 11:53 METAR KMSS 191553Z AUTO VRB06KT 10SM FEW037 26/17 A3007 RMK AO2 SLP182 T02560172
                 =
2018-08-19 10:53 METAR KMSS 191453Z AUTO 06008KT 10SM CLR 24/18 A3008 RMK AO2 SLP185 T02440178
                 51005 =
2018-08-19 09:53 METAR KMSS 191353Z AUTO VRB05KT 10SM CLR 23/18 A3008 RMK AO2 SLP184 T02280183 =
2018-08-19 08:53 METAR KMSS 191253Z AUTO 07004KT 10SM CLR 19/17 A3007 RMK AO2 SLP183 T01940172 =

Support USWX by starting your Amazon purchase here.